ePrivacy and GPDR Cookie Consent by Cookie Consent
EmailTwitter


Observations de surface / France / LFBD (07510)

Régions: Québec | Canada | États-Unis | Europe | France | UK | Ailleurs
Station
Affichage
Infos & localisation pour LFBD (07510) | Aide pour décoder les METARs

Observations prises le 2021-09-18 à 06H30 UTC à BORDEAUX/MERIGNA, FR (LFBD)

Etat du ciel: couvert.

Température: 16.0 Celsius

Point de rosée: 16.0 Celsius

Humidité relative: 100%

Indice Humidex 21.

Vents: Sud-ouest à 7 km/h ou 4 noeuds.

Pression au niveau moyen de la mer: 101.50 kilopascals.

Visibilité horizontale: 6.21 milles terrestres ou 9.94 kilomètres.

Hauteur du plafond: 1524 mètres ( 5000 pieds ).

Observation METAR:

LFBD 180630Z AUTO 21004KT 9999 FEW026/// OVC050/// ///CB 16/16 Q1015 TEMPO 2000

SHRA BKN010 BKN040CB=